Time;durP1;ratioP1;P1;durP2;ratioP2;P2;SDS_P1;SDS_P2;PMS_P1;PMS_P2;Temp;Humidity;BMP_temperature;BMP_pressure;BME280_temperature;BME280_humidity;BME280_pressure;Samples;Min_cycle;Max_cycle;Signal;HPM_P1;HPM_P2
2021/11/11 00:00:06;;;;;;;1.17;0.82;;;;;;;5.75;61.14;102985.68;1746441;80;21042;-62
2021/11/11 00:02:35;;;;;;;2.92;0.90;;;;;;;5.77;60.93;102983.03;1773756;79;21070;-62
2021/11/11 00:05:04;;;;;;;0.95;0.70;;;;;;;5.78;60.75;102984.83;1769829;79;21080;-61
2021/11/11 00:07:33;;;;;;;3.20;0.70;;;;;;;5.80;60.60;102989.74;1771503;79;21764;-62
2021/11/11 00:10:01;;;;;;;2.70;0.70;;;;;;;5.84;60.64;102971.63;1745999;80;21076;-62
2021/11/11 00:12:31;;;;;;;1.72;0.72;;;;;;;5.89;60.46;102983.30;1753918;79;21052;-63
2021/11/11 00:15:03;;;;;;;0.62;0.60;;;;;;;5.89;60.46;102983.30;1771676;78;21545;-62
2021/11/11 00:17:29;;;;;;;0.78;0.60;;;;;;;5.90;59.99;102971.78;1764583;79;21083;-62
2021/11/11 00:19:56;;;;;;;1.12;0.50;;;;;;;5.88;59.86;102976.17;1770868;79;21790;-58
2021/11/11 00:22:23;;;;;;;0.90;0.60;;;;;;;5.86;59.74;102977.91;1776939;79;21028;-58
2021/11/11 00:24:50;;;;;;;1.90;0.90;;;;;;;5.85;59.63;102980.99;1764237;79;21155;-62
2021/11/11 00:27:17;;;;;;;0.88;0.60;;;;;;;5.88;59.44;102969.07;1765484;79;21046;-62
2021/11/11 00:29:45;;;;;;;1.65;0.50;;;;;;;5.88;59.44;102969.07;1776320;79;21137;-58
2021/11/11 00:32:12;;;;;;;0.78;0.50;;;;;;;5.92;59.31;102971.38;1761997;79;21136;-57
2021/11/11 00:34:41;;;;;;;1.27;0.70;;;;;;;5.94;59.49;102965.64;1777089;79;20964;-61
2021/11/11 00:37:08;;;;;;;0.88;0.55;;;;;;;5.97;59.48;102969.69;1773415;79;21052;-58
2021/11/11 00:39:35;;;;;;;0.75;0.50;;;;;;;5.98;59.55;102962.16;1775887;79;21063;-58
2021/11/11 00:42:04;;;;;;;1.12;0.70;;;;;;;6.01;59.33;102956.92;1774745;78;21590;-57
2021/11/11 00:44:31;;;;;;;1.17;0.60;;;;;;;5.99;59.50;102954.64;1774159;79;21114;-62
2021/11/11 00:46:59;;;;;;;1.30;0.78;;;;;;;5.98;59.69;102943.52;1764944;78;21041;-61
2021/11/11 00:49:26;;;;;;;1.12;0.60;;;;;;;5.97;60.06;102948.84;1764808;79;21422;-62
2021/11/11 00:51:53;;;;;;;3.00;0.80;;;;;;;5.98;59.90;102938.20;1755819;80;21016;-63
2021/11/11 00:54:20;;;;;;;1.15;0.70;;;;;;;5.97;59.86;102930.20;1772944;79;21566;-59
2021/11/11 00:56:47;;;;;;;1.87;0.72;;;;;;;5.98;59.83;102927.55;1768167;79;21204;-58
2021/11/11 00:59:13;;;;;;;2.75;0.85;;;;;;;6.00;59.61;102932.91;1742285;80;21052;-58
2021/11/11 01:01:40;;;;;;;0.85;0.60;;;;;;;5.99;59.36;102937.78;1751179;79;21650;-58
2021/11/11 01:04:07;;;;;;;1.15;0.62;;;;;;;5.96;59.78;102925.29;1768414;79;21049;-58
2021/11/11 01:06:34;;;;;;;0.90;0.70;;;;;;;6.02;59.90;102920.11;1783880;79;21056;-62
2021/11/11 01:09:01;;;;;;;3.05;0.62;;;;;;;6.05;59.96;102914.37;1763551;78;21499;-61
2021/11/11 01:11:29;;;;;;;1.37;0.70;;;;;;;6.07;60.18;102908.63;1775732;79;21095;-62
2021/11/11 01:13:56;;;;;;;0.88;0.60;;;;;;;6.09;60.19;102898.94;1776700;79;21485;-61
2021/11/11 01:16:23;;;;;;;1.25;0.60;;;;;;;6.08;60.33;102895.77;1767103;79;21080;-63
2021/11/11 01:18:50;;;;;;;1.45;0.80;;;;;;;6.08;60.43;102903.34;1777832;78;21055;-62
2021/11/11 01:21:17;;;;;;;1.02;0.65;;;;;;;6.05;60.56;102898.39;1743887;80;21111;-63
2021/11/11 01:23:44;;;;;;;1.50;0.90;;;;;;;6.06;60.58;102894.85;1740120;81;21527;-63
2021/11/11 01:26:11;;;;;;;1.32;0.95;;;;;;;6.05;60.82;102891.73;1739710;81;21086;-63
2021/11/11 01:28:38;;;;;;;1.75;1.00;;;;;;;6.08;60.81;102891.78;1769432;78;21079;-62
2021/11/11 01:31:08;;;;;;;2.02;1.02;;;;;;;6.08;60.64;102891.78;1768494;79;21001;-62
2021/11/11 01:33:36;;;;;;;2.30;0.90;;;;;;;6.08;60.51;102890.45;1769975;78;21949;-62
2021/11/11 01:36:04;;;;;;;1.07;0.72;;;;;;;6.09;60.36;102897.60;1768674;79;21454;-62
2021/11/11 01:38:34;;;;;;;3.80;1.10;;;;;;;6.09;60.17;102898.48;1773285;79;21055;-62
2021/11/11 01:41:04;;;;;;;2.83;0.90;;;;;;;6.12;60.29;102892.33;1752792;80;21130;-63
2021/11/11 01:43:33;;;;;;;2.12;1.02;;;;;;;6.13;60.48;102886.12;1743414;80;21000;-63
2021/11/11 01:46:00;;;;;;;1.80;0.88;;;;;;;6.14;60.63;102891.91;1774279;79;21692;-63
2021/11/11 01:48:27;;;;;;;3.87;0.90;;;;;;;6.10;60.60;102886.08;1781263;78;21092;-63
2021/11/11 01:50:56;;;;;;;1.60;0.80;;;;;;;6.11;60.79;102887.87;1773132;79;20985;-62
2021/11/11 01:53:24;;;;;;;2.35;1.10;;;;;;;6.08;61.08;102869.14;1777845;79;20999;-58
2021/11/11 01:55:52;;;;;;;1.30;0.82;;;;;;;6.08;61.08;102869.14;1772493;79;21052;-58
2021/11/11 01:58:21;;;;;;;2.35;0.80;;;;;;;6.11;61.26;102881.21;1772415;80;21120;-58
2021/11/11 02:00:52;;;;;;;14.75;2.15;;;;;;;6.12;61.35;102866.56;1782018;78;21015;-58
2021/11/11 02:03:22;;;;;;;1.98;1.00;;;;;;;6.11;61.41;102863.89;1766048;78;21105;-57
2021/11/11 02:05:56;;;;;;;1.20;0.70;;;;;;;6.11;61.41;102863.89;1772066;79;21493;-57
2021/11/11 02:08:25;;;;;;;3.55;1.00;;;;;;;6.16;61.45;102870.19;1780866;79;21059;-57
2021/11/11 02:10:54;;;;;;;1.75;0.90;;;;;;;6.16;61.36;102871.53;1767913;80;20994;-57
2021/11/11 02:13:21;;;;;;;1.40;0.88;;;;;;;6.16;61.55;102851.55;1788577;78;21489;-57
2021/11/11 02:15:48;;;;;;;1.37;0.95;;;;;;;6.15;61.08;102852.42;1768516;79;21040;-58
2021/11/11 02:18:15;;;;;;;2.95;0.95;;;;;;;6.15;61.08;102852.42;1747319;80;21053;-57
2021/11/11 02:20:44;;;;;;;2.00;0.88;;;;;;;6.12;60.98;102851.04;1774391;79;21525;-57
2021/11/11 02:23:16;;;;;;;3.15;1.00;;;;;;;6.12;61.13;102847.92;1751795;80;21099;-58
2021/11/11 02:26:03;;;;;;;1.95;0.90;;;;;;;6.18;61.26;102852.89;1745592;80;21181;-58
2021/11/11 02:28:32;;;;;;;2.55;1.05;;;;;;;6.20;61.20;102849.39;1782978;78;21094;-58
2021/11/11 02:31:00;;;;;;;1.65;0.80;;;;;;;6.21;61.31;102843.64;1759327;78;21034;-58
2021/11/11 02:33:35;;;;;;;1.75;1.02;;;;;;;6.21;61.36;102849.85;1766241;78;21087;-57
2021/11/11 02:36:02;;;;;;;2.37;1.20;;;;;;;6.19;61.48;102843.60;1754589;79;22357;-58
2021/11/11 02:38:30;;;;;;;1.32;1.10;;;;;;;6.17;61.53;102840.02;1739079;80;21181;-57
2021/11/11 02:41:00;;;;;;;2.52;1.07;;;;;;;6.16;61.74;102836.44;1760582;79;21083;-57
2021/11/11 02:43:28;;;;;;;3.30;1.10;;;;;;;6.19;61.75;102846.69;1740562;79;21499;-61
2021/11/11 02:45:55;;;;;;;1.65;0.90;;;;;;;6.17;61.87;102837.36;1778637;79;21043;-62
2021/11/11 02:48:25;;;;;;;4.33;1.10;;;;;;;6.18;61.95;102835.16;1755269;79;21126;-62
2021/11/11 02:50:54;;;;;;;1.85;1.10;;;;;;;6.20;62.08;102842.73;1772031;79;21469;-61
2021/11/11 02:53:23;;;;;;;1.60;1.20;;;;;;;6.21;62.00;102835.20;1771128;78;21652;-63
2021/11/11 02:55:50;;;;;;;1.80;1.00;;;;;;;6.18;62.07;102825.83;1770559;79;21699;-62
2021/11/11 02:58:18;;;;;;;3.60;1.70;;;;;;;6.17;62.23;102833.36;1775344;78;21056;-62
2021/11/11 03:01:00;;;;;;;2.33;1.20;;;;;;;6.17;62.32;102833.36;1771749;79;21138;-62
2021/11/11 03:03:28;;;;;;;2.77;1.35;;;;;;;6.18;62.56;102828.49;1778633;78;21757;-58
2021/11/11 03:05:55;;;;;;;4.22;1.32;;;;;;;6.19;62.61;102827.63;1784379;78;21071;-57
2021/11/11 03:08:23;;;;;;;3.02;1.30;;;;;;;6.18;62.55;102827.58;1780537;78;21064;-59
2021/11/11 03:10:52;;;;;;;2.02;1.02;;;;;;;6.18;62.56;102825.83;1776154;78;21676;-58
2021/11/11 03:13:21;;;;;;;4.22;1.40;;;;;;;6.22;62.69;102821.00;1781790;78;21398;-59
2021/11/11 03:16:02;;;;;;;7.00;1.70;;;;;;;6.24;62.59;102817.93;1748008;80;21059;-58
2021/11/11 03:18:30;;;;;;;3.83;1.52;;;;;;;6.25;62.90;102817.52;1756638;80;21099;-59
2021/11/11 03:20:57;;;;;;;2.85;1.40;;;;;;;6.24;62.97;102805.94;1759578;79;21150;-59
2021/11/11 03:23:23;;;;;;;2.02;1.37;;;;;;;6.26;63.05;102805.52;1741487;80;21087;-58
2021/11/11 03:25:52;;;;;;;3.05;1.55;;;;;;;6.25;63.16;102798.41;1747028;80;21177;-58
2021/11/11 03:28:20;;;;;;;1.98;1.32;;;;;;;6.24;63.20;102793.08;1732585;81;21549;-58
2021/11/11 03:30:47;;;;;;;4.92;1.52;;;;;;;6.25;63.42;102799.73;1757451;79;21064;-57
2021/11/11 03:33:14;;;;;;;3.58;1.20;;;;;;;6.25;63.42;102785.09;1766828;79;21031;-58
2021/11/11 03:35:42;;;;;;;4.35;1.50;;;;;;;6.23;63.50;102785.50;1776094;79;21094;-58
2021/11/11 03:38:10;;;;;;;4.83;1.47;;;;;;;6.24;63.52;102779.30;1779084;79;21893;-58
2021/11/11 03:40:42;;;;;;;2.55;1.40;;;;;;;6.24;63.59;102775.30;1779261;79;21062;-57
2021/11/11 03:43:12;;;;;;;5.42;1.52;;;;;;;6.24;63.64;102771.76;1768148;80;21004;-57
2021/11/11 03:45:43;;;;;;;2.98;1.22;;;;;;;6.23;63.98;102766.85;1776987;79;21484;-58
2021/11/11 03:48:12;;;;;;;3.05;1.57;;;;;;;6.26;63.98;102765.56;1770674;78;21000;-58
2021/11/11 03:50:40;;;;;;;2.25;1.30;;;;;;;6.26;64.06;102754.91;1717712;81;21132;-58
2021/11/11 03:53:08;;;;;;;3.22;1.40;;;;;;;6.25;64.12;102758.90;1784385;79;22120;-58
2021/11/11 03:55:37;;;;;;;3.33;1.62;;;;;;;6.22;64.34;102753.08;1768836;79;21082;-58
2021/11/11 03:58:04;;;;;;;2.50;1.42;;;;;;;6.23;64.22;102752.20;1770535;79;21111;-58
2021/11/11 04:00:32;;;;;;;4.05;1.50;;;;;;;6.22;64.17;102757.07;1786667;78;21437;-58
2021/11/11 04:03:00;;;;;;;2.15;1.52;;;;;;;6.24;64.24;102753.98;1777502;79;21133;-58
2021/11/11 04:05:27;;;;;;;2.40;1.27;;;;;;;6.26;64.13;102748.24;1741517;79;21691;-58
2021/11/11 04:07:56;;;;;;;4.08;1.50;;;;;;;6.28;64.25;102745.16;1757004;79;21038;-59
2021/11/11 04:10:24;;;;;;;4.50;1.52;;;;;;;6.33;64.20;102741.70;1743115;81;21111;-58
2021/11/11 04:12:54;;;;;;;4.28;1.70;;;;;;;6.35;64.39;102743.50;1748454;80;21037;-58
2021/11/11 04:15:20;;;;;;;4.37;1.52;;;;;;;6.36;64.52;102743.95;1758148;79;21170;-58
2021/11/11 04:17:49;;;;;;;4.42;1.40;;;;;;;6.36;64.44;102743.07;1737411;80;21469;-57
2021/11/11 04:20:15;;;;;;;3.02;1.17;;;;;;;6.32;64.26;102745.24;1732926;80;21039;-58
2021/11/11 04:22:44;;;;;;;4.20;1.45;;;;;;;6.32;64.30;102746.57;1755911;79;20972;-57
2021/11/11 04:25:17;;;;;;;2.72;1.52;;;;;;;6.34;64.43;102746.16;1719769;80;21122;-57
2021/11/11 04:27:48;;;;;;;3.98;1.35;;;;;;;6.37;64.63;102743.53;1751708;80;21111;-58
2021/11/11 04:32:53;;;;;;;2.45;1.25;;;;;;;6.44;64.97;102742.73;1742982;80;21543;-58
2021/11/11 04:35:20;;;;;;;2.98;1.50;;;;;;;6.43;65.11;102736.53;1740080;80;21076;-62
2021/11/11 04:48:44;;;;;;;2.10;1.13;;;;;;;6.39;65.26;102737.78;1742272;80;21444;-58
2021/11/11 05:01:50;;;;;;;4.10;1.55;;;;;;;6.50;65.63;102746.81;1742668;79;21094;-58
2021/11/11 05:04:13;;;;;;;4.25;1.10;;;;;;;6.54;65.70;102743.34;1746967;80;21797;-59
2021/11/11 05:06:39;;;;;;;1.90;1.07;;;;;;;6.62;65.47;102746.54;1783459;77;21579;-58
2021/11/11 05:09:06;;;;;;;5.65;1.32;;;;;;;6.70;65.37;102747.52;1770311;78;21039;-58
2021/11/11 05:11:34;;;;;;;3.10;0.98;;;;;;;6.76;64.96;102746.30;1776264;79;21052;-58
2021/11/11 05:14:03;;;;;;;3.87;1.80;;;;;;;6.84;64.78;102752.61;1754139;79;21079;-58
2021/11/11 05:16:30;;;;;;;4.47;1.30;;;;;;;6.94;64.66;102754.95;1746584;80;21102;-59
2021/11/11 05:18:58;;;;;;;7.83;1.27;;;;;;;7.03;64.46;102753.72;1765061;80;21077;-58
2021/11/11 05:21:27;;;;;;;2.47;0.90;;;;;;;7.14;64.32;102760.52;1768689;78;21020;-58
2021/11/11 05:23:54;;;;;;;4.75;1.07;;;;;;;7.20;64.13;102760.16;1777652;79;21574;-59
2021/11/11 05:26:24;;;;;;;5.70;1.40;;;;;;;7.25;64.01;102769.10;1774839;79;21110;-59
2021/11/11 05:28:53;;;;;;;2.72;0.90;;;;;;;7.32;63.85;102766.95;1771402;79;21536;-56
2021/11/11 05:31:20;;;;;;;2.92;1.00;;;;;;;7.40;63.48;102759.91;1729441;81;21111;-57
2021/11/11 05:33:49;;;;;;;3.27;1.00;;;;;;;7.48;63.18;102766.66;1751034;80;21051;-58
2021/11/11 05:36:16;;;;;;;3.05;1.00;;;;;;;7.56;62.88;102768.08;1765563;79;21520;-58
2021/11/11 05:38:43;;;;;;;2.17;0.82;;;;;;;7.63;62.39;102765.95;1759838;79;21525;-58
2021/11/11 05:41:10;;;;;;;1.42;0.80;;;;;;;7.71;61.80;102765.57;1771430;79;21023;-58
2021/11/11 05:43:37;;;;;;;1.55;0.82;;;;;;;7.82;61.56;102764.77;1763004;79;21087;-58
2021/11/11 05:46:04;;;;;;;2.80;1.00;;;;;;;7.91;61.11;102763.52;1768022;78;21047;-58
2021/11/11 05:48:32;;;;;;;2.47;0.80;;;;;;;7.99;60.75;102760.47;1767570;79;21734;-58
2021/11/11 05:50:59;;;;;;;3.58;1.10;;;;;;;8.10;60.42;102760.55;1769390;79;21012;-58
2021/11/11 05:53:27;;;;;;;2.33;0.90;;;;;;;8.20;60.29;102764.64;1772016;78;21567;-58
2021/11/11 05:55:55;;;;;;;4.67;1.00;;;;;;;8.29;60.18;102769.61;1756405;79;22128;-58
2021/11/11 05:58:22;;;;;;;1.72;0.62;;;;;;;8.36;59.65;102769.64;1767617;78;21068;-57
2021/11/11 06:00:49;;;;;;;2.65;1.02;;;;;;;8.43;59.45;102775.48;1776164;78;21001;-57
2021/11/11 06:03:20;;;;;;;2.33;0.90;;;;;;;8.51;59.15;102775.56;1752508;81;21086;-59
2021/11/11 06:05:50;;;;;;;1.90;1.00;;;;;;;8.57;59.31;102767.14;1761561;79;21141;-58
2021/11/11 06:08:19;;;;;;;2.08;1.05;;;;;;;8.67;59.40;102773.86;1771242;78;21085;-58
2021/11/11 06:10:46;;;;;;;2.17;1.17;;;;;;;8.75;59.33;102772.14;1778201;79;21127;-58
2021/11/11 06:13:13;;;;;;;2.50;0.95;;;;;;;8.82;59.22;102777.97;1772211;79;21482;-57
2021/11/11 06:15:40;;;;;;;4.78;1.35;;;;;;;8.89;58.85;102783.78;1773457;79;21055;-56
2021/11/11 06:18:10;;;;;;;4.12;1.12;;;;;;;8.97;58.80;102779.81;1751390;79;21080;-57
2021/11/11 06:20:42;;;;;;;2.10;1.20;;;;;;;9.07;58.52;102776.73;1766417;79;21284;-59
2021/11/11 06:23:07;;;;;;;4.58;1.17;;;;;;;9.12;58.54;102768.27;1765775;78;21007;-58
2021/11/11 06:25:35;;;;;;;7.55;1.37;;;;;;;9.15;58.45;102772.75;1768748;79;21695;-58
2021/11/11 06:28:04;;;;;;;2.98;0.90;;;;;;;9.13;58.43;102763.36;1765668;79;21525;-58
2021/11/11 06:30:33;;;;;;;6.25;1.15;;;;;;;9.14;58.26;102758.46;1762389;79;21027;-57
2021/11/11 06:33:00;;;;;;;1.87;1.00;;;;;;;9.18;58.31;102760.70;1778333;79;21081;-57
2021/11/11 06:35:30;;;;;;;5.10;1.20;;;;;;;9.21;59.03;102766.53;1741238;80;21092;-58
2021/11/11 06:37:58;;;;;;;4.62;1.15;;;;;;;9.23;59.47;102762.07;1755251;80;21033;-59
2021/11/11 06:40:26;;;;;;;1.90;1.00;;;;;;;9.21;59.75;102760.72;1732755;81;21535;-58
2021/11/11 06:42:56;;;;;;;1.92;1.10;;;;;;;9.20;60.27;102757.59;1775184;79;21057;-58
2021/11/11 06:45:26;;;;;;;4.50;1.27;;;;;;;9.21;60.48;102763.85;1735855;80;21117;-59
2021/11/11 06:47:53;;;;;;;2.55;0.98;;;;;;;9.22;60.44;102755.81;1773367;79;21021;-58
2021/11/11 06:50:20;;;;;;;3.95;1.20;;;;;;;9.25;60.50;102761.63;1787891;78;21134;-57
2021/11/11 06:52:47;;;;;;;2.95;1.20;;;;;;;9.31;60.57;102762.97;1773554;79;21035;-57
2021/11/11 06:55:17;;;;;;;3.20;1.57;;;;;;;9.37;60.49;102750.94;1774113;78;21028;-58
2021/11/11 06:57:44;;;;;;;2.50;1.20;;;;;;;9.42;60.51;102757.22;1774102;78;21901;-58
2021/11/11 07:00:13;;;;;;;2.10;1.32;;;;;;;9.45;60.67;102753.62;1765763;78;21027;-57
2021/11/11 07:02:42;;;;;;;4.25;1.52;;;;;;;9.52;60.68;102751.86;1755499;80;21536;-58
2021/11/11 07:05:11;;;;;;;9.80;1.50;;;;;;;9.56;60.66;102749.63;1782640;78;21087;-58
2021/11/11 07:07:40;;;;;;;2.83;1.25;;;;;;;9.60;60.72;102746.06;1773064;79;21115;-63
2021/11/11 07:10:08;;;;;;;3.90;1.40;;;;;;;9.63;60.64;102747.86;1772193;79;21924;-58
2021/11/11 07:12:36;;;;;;;13.00;2.37;;;;;;;9.64;60.81;102742.52;1783713;77;21608;-59
2021/11/11 07:15:06;;;;;;;11.83;1.60;;;;;;;9.64;60.69;102737.59;1781461;78;21107;-64
2021/11/11 07:17:35;;;;;;;8.20;1.55;;;;;;;9.65;60.80;102740.28;1768571;78;21059;-64
2021/11/11 07:20:04;;;;;;;3.85;1.30;;;;;;;9.71;60.74;102740.71;1777409;78;21115;-58
2021/11/11 07:22:32;;;;;;;10.03;1.40;;;;;;;9.80;60.75;102739.83;1770331;79;21127;-60
2021/11/11 07:25:00;;;;;;;3.40;1.50;;;;;;;9.87;60.83;102736.27;1770856;79;21092;-59
2021/11/11 07:27:30;;;;;;;3.67;1.60;;;;;;;9.95;60.60;102741.17;1772704;78;21115;-59
2021/11/11 07:29:58;;;;;;;4.05;1.45;;;;;;;9.99;60.19;102744.76;1773164;78;21099;-58
2021/11/11 07:32:26;;;;;;;10.75;1.55;;;;;;;10.01;60.15;102748.33;1773362;78;21022;-57
2021/11/11 07:34:53;;;;;;;3.58;1.92;;;;;;;10.06;60.27;102746.95;1767993;79;21196;-57
2021/11/11 07:37:20;;;;;;;13.18;2.47;;;;;;;10.14;60.09;102745.19;1773895;79;20928;-59
2021/11/11 07:39:50;;;;;;;4.87;1.90;;;;;;;10.21;60.01;102744.27;1773820;78;21042;-60
2021/11/11 07:42:17;;;;;;;7.55;1.92;;;;;;;10.27;59.83;102744.25;1771804;78;21068;-58
2021/11/11 07:44:47;;;;;;;3.40;1.90;;;;;;;10.26;59.79;102742.47;1755587;79;21075;-57
2021/11/11 07:47:26;;;;;;;3.72;1.40;;;;;;;10.24;59.90;102741.58;1748152;80;22183;-58
2021/11/11 07:49:43;;;;;;;4.00;1.70;;;;;;;10.24;59.99;102740.23;1752315;80;21532;-59
2021/11/11 07:52:11;;;;;;;10.20;2.15;;;;;;;10.30;59.81;102740.25;1768220;78;20970;-59
2021/11/11 07:54:37;;;;;;;5.67;1.87;;;;;;;10.40;59.75;102741.55;1776002;78;21606;-57
2021/11/11 07:57:05;;;;;;;10.05;2.58;;;;;;;10.49;59.43;102731.30;1757285;79;21040;-61
2021/11/11 07:59:39;;;;;;;7.22;2.05;;;;;;;10.54;59.23;102726.37;1761549;79;22126;-59
2021/11/11 08:02:10;;;;;;;5.83;2.27;;;;;;;10.56;58.95;102731.27;1784533;77;20997;-59
2021/11/11 08:04:54;;;;;;;5.45;2.30;;;;;;;10.56;58.76;102729.94;1769321;78;21518;-58
2021/11/11 08:07:52;;;;;;;9.33;2.77;;;;;;;10.57;58.78;102730.38;1779059;78;21099;-59
2021/11/11 08:10:42;;;;;;;5.97;2.30;;;;;;;10.63;59.03;102725.45;1773798;79;21007;-58
2021/11/11 08:13:15;;;;;;;6.42;2.40;;;;;;;10.68;59.19;102725.41;1718585;80;21116;-58
2021/11/11 08:15:59;;;;;;;4.78;2.12;;;;;;;10.73;59.26;102716.91;1719528;80;21447;-59
2021/11/11 08:18:28;;;;;;;6.15;2.05;;;;;;;10.72;58.89;102720.03;1764886;78;21030;-60
2021/11/11 08:20:55;;;;;;;7.62;2.05;;;;;;;10.70;58.77;102724.52;1758062;78;21447;-58
2021/11/11 08:23:23;;;;;;;5.28;1.82;;;;;;;10.70;58.69;102711.09;1767981;78;21067;-57
2021/11/11 08:26:02;;;;;;;3.70;1.70;;;;;;;10.75;58.80;102709.75;1753167;78;21888;-58
2021/11/11 08:28:28;;;;;;;4.45;1.95;;;;;;;10.82;58.50;102712.84;1716466;79;21633;-62
2021/11/11 08:30:58;;;;;;;3.15;1.90;;;;;;;10.86;58.30;102703.86;1756187;80;21069;-58
2021/11/11 08:33:29;;;;;;;9.95;2.35;;;;;;;10.93;58.17;102702.48;1752430;78;21043;-62
2021/11/11 08:36:04;;;;;;;4.20;1.90;;;;;;;10.97;58.05;102711.86;1753350;77;21144;-63
2021/11/11 08:38:32;;;;;;;6.80;1.70;;;;;;;10.97;57.72;102709.17;1770299;78;21434;-62
2021/11/11 08:41:06;;;;;;;5.35;2.30;;;;;;;10.90;57.73;102703.41;1782461;78;21361;-58
2021/11/11 08:43:38;;;;;;;5.80;2.27;;;;;;;10.84;57.71;102700.30;1773192;78;21548;-63
2021/11/11 08:46:08;;;;;;;8.68;2.77;;;;;;;10.81;58.05;102698.98;1772550;78;21039;-64
2021/11/11 08:48:35;;;;;;;4.85;2.00;;;;;;;10.88;58.11;102691.33;1781078;78;21072;-64
2021/11/11 08:51:03;;;;;;;5.42;2.15;;;;;;;10.93;57.80;102693.09;1760563;78;21329;-62
2021/11/11 08:53:31;;;;;;;4.72;2.15;;;;;;;10.94;57.84;102698.89;1773213;79;21080;-63
2021/11/11 08:55:58;;;;;;;4.08;2.22;;;;;;;10.94;57.91;102693.09;1766962;79;20949;-63
2021/11/11 08:58:29;;;;;;;5.15;2.22;;;;;;;10.97;57.84;102694.88;1769063;78;20935;-64
2021/11/11 09:00:55;;;;;;;6.72;2.35;;;;;;;11.01;57.82;102691.27;1772468;79;20969;-64
2021/11/11 09:03:22;;;;;;;6.78;2.65;;;;;;;11.01;57.60;102691.27;1776031;78;21061;-64
2021/11/11 09:05:49;;;;;;;5.42;2.47;;;;;;;11.01;57.45;102688.13;1778807;78;20976;-61
2021/11/11 09:08:15;;;;;;;7.20;2.70;;;;;;;11.04;57.43;102697.96;1781898;78;21123;-62
2021/11/11 09:10:44;;;;;;;6.20;2.95;;;;;;;11.06;57.59;102693.94;1783071;77;21052;-62
2021/11/11 09:13:10;;;;;;;4.30;2.60;;;;;;;11.04;57.76;102693.94;1752795;80;21065;-62
2021/11/11 09:15:38;;;;;;;9.40;2.80;;;;;;;11.03;57.83;102685.45;1749631;80;21131;-64
2021/11/11 09:18:07;;;;;;;7.85;3.35;;;;;;;11.03;57.80;102689.00;1760728;80;21084;-64
2021/11/11 09:20:36;;;;;;;8.18;2.65;;;;;;;11.05;57.85;102679.61;1751536;80;21500;-64
2021/11/11 09:23:03;;;;;;;7.37;3.33;;;;;;;11.04;57.60;102679.17;1780884;78;21076;-63
2021/11/11 09:25:31;;;;;;;6.97;2.87;;;;;;;10.99;57.40;102678.31;1768045;78;21223;-62
2021/11/11 09:27:59;;;;;;;4.22;2.50;;;;;;;10.96;57.57;102667.13;1789526;78;21308;-63
2021/11/11 09:30:29;;;;;;;12.53;2.85;;;;;;;10.87;57.49;102668.08;1749073;79;20912;-63
2021/11/11 09:32:58;;;;;;;6.30;2.75;;;;;;;10.79;57.59;102673.95;1784170;77;20918;-63
2021/11/11 09:35:25;;;;;;;7.67;3.35;;;;;;;10.68;57.81;102659.67;1777145;78;22530;-65
2021/11/11 09:37:56;;;;;;;9.15;3.45;;;;;;;10.62;58.04;102655.69;1773261;78;21574;-62
2021/11/11 09:40:25;;;;;;;11.33;3.45;;;;;;;10.62;58.30;102659.71;1773839;78;21097;-63
2021/11/11 09:42:55;;;;;;;8.90;3.15;;;;;;;10.65;58.27;102652.98;1770176;78;21033;-62
2021/11/11 09:45:27;;;;;;;7.05;2.80;;;;;;;10.68;57.86;102647.60;1788078;78;20967;-64
2021/11/11 09:47:56;;;;;;;8.70;3.42;;;;;;;10.68;57.89;102643.58;1751425;78;21028;-64
2021/11/11 09:50:25;;;;;;;9.73;3.30;;;;;;;10.74;57.87;102641.77;1785363;78;20937;-58
2021/11/11 09:52:52;;;;;;;7.05;3.05;;;;;;;10.76;57.56;102648.48;1782343;77;21535;-57
2021/11/11 10:00:57;;;;;;;13.28;3.27;;;;;;;10.68;57.02;102638.21;1771953;78;20927;-57
2021/11/11 10:03:24;;;;;;;11.75;3.60;;;;;;;10.67;57.15;102640.45;1766240;79;22392;-58
2021/11/11 10:05:53;;;;;;;10.08;3.22;;;;;;;10.65;57.35;102632.87;1773095;79;23230;-57
2021/11/11 10:08:37;;;;;;;5.20;2.87;;;;;;;10.64;57.38;102629.74;1771651;78;21064;-56
2021/11/11 10:11:12;;;;;;;5.35;2.50;;;;;;;10.58;57.73;102623.52;1775036;79;21598;-58
2021/11/11 10:13:39;;;;;;;5.35;2.72;;;;;;;10.56;57.96;102619.95;1763879;78;21347;-57
2021/11/11 10:16:13;;;;;;;6.75;3.02;;;;;;;10.55;58.01;102618.17;1772381;78;21447;-58
2021/11/11 10:18:46;;;;;;;6.27;2.93;;;;;;;10.54;58.14;102621.76;1751123;80;21127;-57
2021/11/11 10:21:32;;;;;;;7.72;3.72;;;;;;;10.57;58.27;102631.13;1762312;79;21047;-59
2021/11/11 10:24:14;;;;;;;;;;;;;;;10.60;58.47;102612.33;1768993;79;21017;-58
2021/11/11 10:26:44;;;;;;;5.50;2.92;;;;;;;10.68;58.35;102623.45;1771631;79;20248;-57
2021/11/11 10:29:30;;;;;;;7.12;2.60;;;;;;;10.70;57.84;102615.86;1743017;80;21082;-58
2021/11/11 10:32:29;;;;;;;6.80;3.02;;;;;;;10.67;57.29;102614.97;1777769;78;21536;-60
2021/11/11 10:35:21;;;;;;;5.53;2.72;;;;;;;10.60;57.27;102609.64;1781669;78;22251;-59
2021/11/11 10:37:57;;;;;;;5.40;2.92;;;;;;;10.57;57.50;102605.64;1759288;79;21043;-58
2021/11/11 10:40:34;;;;;;;14.00;3.10;;;;;;;10.56;57.60;102603.86;1755938;80;20924;-62
2021/11/11 10:43:16;;;;;;;11.00;3.05;;;;;;;10.57;57.84;102604.30;1754999;79;21096;-63
2021/11/11 10:45:47;;;;;;;4.90;2.62;;;;;;;10.57;57.82;102597.59;1756021;80;21497;-61
2021/11/11 10:48:17;;;;;;;18.32;3.40;;;;;;;10.54;57.49;102596.71;1754401;79;21051;-64
2021/11/11 10:50:59;;;;;;;6.30;2.58;;;;;;;10.52;57.50;102591.38;1745978;79;21048;-62
2021/11/11 10:53:30;;;;;;;6.50;2.90;;;;;;;10.47;57.16;102585.11;1767891;78;21045;-63
2021/11/11 10:56:00;;;;;;;6.78;2.70;;;;;;;10.36;57.50;102584.27;1755024;79;21095;-64
2021/11/11 10:58:30;;;;;;;4.50;2.30;;;;;;;10.31;57.64;102585.18;1760248;80;21090;-63
2021/11/11 11:01:04;;;;;;;4.40;2.27;;;;;;;10.26;57.71;102581.60;1754256;80;21159;-62
2021/11/11 11:03:42;;;;;;;6.37;2.67;;;;;;;10.19;57.63;102577.17;1751530;80;21469;-63
2021/11/11 11:06:20;;;;;;;4.12;2.15;;;;;;;10.11;57.51;102562.92;1750956;80;21753;-63
2021/11/11 11:08:50;;;;;;;4.80;2.50;;;;;;;10.02;57.81;102564.72;1743879;80;21445;-62
2021/11/11 11:11:24;;;;;;;5.45;2.42;;;;;;;9.98;57.91;102560.27;1778831;78;21149;-64
2021/11/11 11:14:00;;;;;;;5.33;2.30;;;;;;;9.97;58.12;102561.17;1770798;78;21412;-64
2021/11/11 11:16:33;;;;;;;3.42;2.30;;;;;;;9.99;58.07;102551.34;1756260;80;21043;-63
2021/11/11 11:19:08;;;;;;;5.37;2.50;;;;;;;9.97;58.08;102555.81;1755877;79;21111;-62
2021/11/11 11:21:48;;;;;;;4.85;2.27;;;;;;;9.95;57.91;102550.91;1764927;79;21139;-63
2021/11/11 11:24:29;;;;;;;4.83;2.40;;;;;;;9.88;57.84;102537.98;1770118;78;21079;-63
2021/11/11 11:27:00;;;;;;;6.33;3.50;;;;;;;9.84;58.16;102536.67;1763850;79;21616;-62
2021/11/11 11:34:38;;;;;;;6.65;3.10;;;;;;;9.77;58.58;102528.19;1783606;78;20925;-62
2021/11/11 11:37:11;;;;;;;6.70;2.95;;;;;;;9.75;58.56;102526.88;1761793;78;21772;-58
2021/11/11 11:39:51;;;;;;;12.15;4.17;;;;;;;9.75;58.69;102533.11;1776813;79;21122;-56
2021/11/11 11:42:23;;;;;;;5.28;2.77;;;;;;;9.79;58.62;102522.38;1771159;78;21086;-58
2021/11/11 11:44:57;;;;;;;7.28;3.20;;;;;;;9.83;58.49;102520.12;1784096;78;21584;-63
2021/11/11 11:47:36;;;;;;;4.90;2.30;;;;;;;9.86;58.30;102506.75;1747252;80;21776;-62
2021/11/11 11:50:16;;;;;;;4.62;2.15;;;;;;;9.83;58.07;102508.06;1742851;80;21056;-62
2021/11/11 11:52:48;;;;;;;4.97;2.22;;;;;;;9.81;57.75;102508.09;1766018;78;21609;-61
2021/11/11 11:57:56;;;;;;;4.15;1.90;;;;;;;9.74;57.29;102511.23;1769465;79;21122;-63
2021/11/11 12:14:04;;;;;;;5.67;1.57;;;;;;;9.53;55.89;102485.86;1772353;78;20876;-62
2021/11/11 12:16:36;;;;;;;4.72;1.92;;;;;;;9.51;55.75;102480.53;1768357;80;21148;-60
2021/11/11 12:39:55;;;;;;;2.02;1.02;;;;;;;9.45;54.22;102469.38;1775235;79;21560;-62
2021/11/11 12:42:43;;;;;;;1.72;0.88;;;;;;;9.45;54.34;102469.38;1772850;79;20932;-63
2021/11/11 12:45:36;;;;;;;2.65;1.12;;;;;;;9.45;54.41;102460.44;1771945;79;21136;-62
2021/11/11 12:48:18;;;;;;;3.45;0.98;;;;;;;9.41;54.68;102451.55;1776476;78;21026;-62
2021/11/11 12:50:50;;;;;;;2.77;1.75;;;;;;;9.41;54.77;102442.60;1731483;80;21366;-63
2021/11/11 12:53:21;;;;;;;3.50;1.80;;;;;;;9.38;54.61;102437.27;1751356;80;21215;-63
2021/11/11 12:56:09;;;;;;;2.55;1.20;;;;;;;9.36;54.62;102437.72;1736695;80;21029;-62